»·PEaware :: N25212 KVNY-KSFO

N25212 :: KVNY-KSFO

FLIGHT INFORMATION

Flight Status: Arrived
Operator: Privately registered:
United States
More flights under this callsign
Pilot: Chris L. (17964)
Aircraft: CESSNA 441 CONQUEST 2
(C441)
More flights by this aircraft type
Origin: KVNY Van Nuys
United States
Destination: KSFO San Francisco Intl
United States
More flights between these airports :: More routes between these airports
Route: DCT
File this flight plan on PilotEdge
Remarks:
Altitude:
(Current/Filed)
10,500ft
Speed:
(Current/Filed)
200kts
Departed: 29-Sep-18 04:59 PM
Arrived: 29-Sep-18 06:31 PM
Distance/Time
Traveled:
279nm/1:32
Distance/Time
To Go:
Arrived

Flight Plot

Page will automatically refresh every two minutes.

Flight plan parsing failed; only flown route is shown


Map Options




Map Legend


Flown Route
Filed Route
Departure Airport
Arrival Airport
Navaid (VOR, NDB)
Fix

Horizontal Profiles

Position Reports

Time Latitude Longitude Heading Altitude Ground
Speed
29-Sep-18 16:47 34.204342 -118.491481 262 806ft 0kts
29-Sep-18 16:48 34.204341 -118.491485 262 806ft 0kts
29-Sep-18 16:49 34.204341 -118.491491 262 806ft 0kts
29-Sep-18 16:50 34.204340 -118.491496 262 806ft 0kts
29-Sep-18 16:51 34.204340 -118.491501 262 806ft 0kts
29-Sep-18 16:52 34.204339 -118.491506 262 806ft 0kts
29-Sep-18 16:53 34.204339 -118.491511 262 806ft 0kts
29-Sep-18 16:54 34.204338 -118.491516 262 806ft 0kts
29-Sep-18 16:55 34.204338 -118.491521 262 806ft 0kts
29-Sep-18 16:56 34.204825 -118.491138 355 806ft 7kts
29-Sep-18 16:57 34.210658 -118.491694 355 806ft 29kts
29-Sep-18 16:58 34.213179 -118.491457 90 806ft 0kts
29-Sep-18 16:59 34.213179 -118.491450 90 806ft 0kts
29-Sep-18 17:00 34.213179 -118.491442 90 806ft 0kts
29-Sep-18 17:01 34.209050 -118.490317 173 806ft 86kts
29-Sep-18 17:02 34.185416 -118.507378 261 2043ft 152kts
29-Sep-18 17:03 34.184570 -118.558522 293 3611ft 168kts
29-Sep-18 17:04 34.206150 -118.611351 292 5044ft 183kts
29-Sep-18 17:05 34.224589 -118.670634 286 6559ft 197kts
29-Sep-18 17:06 34.256967 -118.724006 303 8228ft 203kts
29-Sep-18 17:07 34.296748 -118.774747 319 9456ft 214kts
29-Sep-18 17:08 34.345172 -118.818118 327 10510ft 240kts
29-Sep-18 17:09 34.411393 -118.850170 334 10506ft 264kts
29-Sep-18 17:10 34.481004 -118.882126 334 10520ft 270kts
29-Sep-18 17:11 34.550742 -118.914489 333 10541ft 268kts
29-Sep-18 17:12 34.617824 -118.954482 322 10556ft 266kts
29-Sep-18 17:13 34.677175 -119.006858 315 10562ft 262kts
29-Sep-18 17:14 34.732766 -119.063717 313 10560ft 261kts
29-Sep-18 17:15 34.787367 -119.122243 312 10554ft 261kts
29-Sep-18 17:16 34.841553 -119.181108 312 10543ft 261kts
29-Sep-18 17:17 34.895863 -119.240447 312 10529ft 261kts
29-Sep-18 17:18 34.948436 -119.300737 300 10526ft 255kts
29-Sep-18 17:19 34.983458 -119.374740 293 10495ft 249kts
29-Sep-18 17:20 35.016507 -119.448995 293 10485ft 248kts
29-Sep-18 17:21 35.049386 -119.522868 293 10480ft 247kts
29-Sep-18 17:22 35.082150 -119.596389 293 10482ft 244kts
29-Sep-18 17:23 35.129202 -119.656745 320 10482ft 254kts
29-Sep-18 17:24 35.193797 -119.694748 331 10475ft 262kts
29-Sep-18 17:25 35.260691 -119.729536 332 10476ft 260kts
29-Sep-18 17:26 35.327132 -119.764076 332 10474ft 259kts
29-Sep-18 17:27 35.393753 -119.798706 332 10477ft 259kts
29-Sep-18 17:28 35.460161 -119.833238 332 10456ft 260kts
29-Sep-18 17:29 35.526655 -119.867889 332 10453ft 259kts
29-Sep-18 17:30 35.593145 -119.902822 332 10450ft 259kts
29-Sep-18 17:31 35.659427 -119.937636 332 10491ft 258kts
29-Sep-18 17:32 35.723791 -119.975941 309 10500ft 251kts
29-Sep-18 17:33 35.756657 -120.048930 290 10499ft 244kts
29-Sep-18 17:34 35.786152 -120.124223 290 10500ft 244kts
29-Sep-18 17:35 35.816249 -120.199539 291 10501ft 244kts
29-Sep-18 17:36 35.847479 -120.273964 296 10504ft 246kts
29-Sep-18 17:37 35.882046 -120.330676 306 10501ft 250kts
29-Sep-18 17:38 35.938965 -120.402583 310 10501ft 252kts
29-Sep-18 17:39 35.989874 -120.461886 311 10503ft 251kts
29-Sep-18 17:40 36.041366 -120.520932 312 10508ft 252kts
29-Sep-18 17:41 36.084294 -120.570082 312 10501ft 253kts
29-Sep-18 17:42 36.135831 -120.629068 312 10500ft 252kts
29-Sep-18 17:43 36.196160 -120.698218 312 10497ft 253kts
29-Sep-18 17:44 36.239099 -120.747544 312 10498ft 253kts
29-Sep-18 17:45 36.290882 -120.807099 312 10500ft 253kts
29-Sep-18 17:46 36.342411 -120.866493 312 10500ft 253kts
29-Sep-18 17:47 36.396040 -120.923308 318 10498ft 255kts
29-Sep-18 17:48 36.452927 -120.976359 318 10499ft 255kts
29-Sep-18 17:49 36.509787 -121.029227 318 10501ft 255kts
29-Sep-18 17:50 36.566191 -121.081665 318 10501ft 255kts
29-Sep-18 17:51 36.623037 -121.134524 318 10503ft 255kts
29-Sep-18 17:52 36.679468 -121.187235 318 10330ft 252kts
29-Sep-18 17:53 36.735529 -121.240021 318 10145ft 251kts
29-Sep-18 17:54 36.791140 -121.292876 318 9962ft 251kts
29-Sep-18 17:55 36.845446 -121.347402 310 9782ft 249kts
29-Sep-18 17:56 36.891415 -121.412161 300 9605ft 247kts
29-Sep-18 17:57 36.924445 -121.486756 293 9407ft 246kts
29-Sep-18 17:58 36.956038 -121.562894 293 9070ft 246kts
29-Sep-18 17:59 36.988114 -121.638501 306 8740ft 249kts
29-Sep-18 18:00 37.039776 -121.696577 322 8311ft 252kts
29-Sep-18 18:01 37.097239 -121.746411 323 7675ft 250kts
29-Sep-18 18:02 37.154256 -121.795468 323 7057ft 247kts
29-Sep-18 18:03 37.210129 -121.843503 323 6454ft 244kts
29-Sep-18 18:04 37.269452 -121.874186 7 5973ft 233kts
29-Sep-18 18:05 37.311377 -121.818147 82 5344ft 226kts
29-Sep-18 18:06 37.295227 -121.746035 142 4215ft 229kts
29-Sep-18 18:07 37.241030 -121.735381 214 4157ft 192kts
29-Sep-18 18:08 37.207681 -121.789662 245 3825ft 197kts
29-Sep-18 18:09 37.196521 -121.853324 261 4018ft 191kts
29-Sep-18 18:10 37.190789 -121.920922 261 4004ft 198kts
29-Sep-18 18:11 37.201162 -121.989141 275 4054ft 198kts
29-Sep-18 18:12 37.166961 -122.026591 157 3906ft 205kts
29-Sep-18 18:13 37.157322 -121.959471 50 3951ft 223kts
29-Sep-18 18:14 37.181861 -121.892768 100 3813ft 225kts
29-Sep-18 18:15 37.169651 -121.816040 104 3618ft 226kts
29-Sep-18 18:16 37.144449 -121.745173 98 3141ft 233kts
29-Sep-18 18:17 37.173282 -121.686214 15 3742ft 216kts
29-Sep-18 18:18 37.236105 -121.688808 342 3663ft 239kts
29-Sep-18 18:19 37.291438 -121.733832 319 3528ft 230kts
29-Sep-18 18:20 37.340992 -121.781290 318 3437ft 216kts
29-Sep-18 18:21 37.384927 -121.826153 316 3501ft 197kts
29-Sep-18 18:22 37.426572 -121.870180 314 3499ft 194kts
29-Sep-18 18:23 37.467114 -121.915395 313 3317ft 196kts
29-Sep-18 18:24 37.502358 -121.966981 304 2876ft 193kts
29-Sep-18 18:25 37.518925 -122.028874 280 2450ft 182kts
29-Sep-18 18:26 37.520171 -122.090845 249 1973ft 171kts
29-Sep-18 18:27 37.516446 -122.144294 297 1969ft 146kts
29-Sep-18 18:28 37.544157 -122.178651 322 2511ft 155kts
29-Sep-18 18:29 37.569588 -122.221053 281 1806ft 143kts
29-Sep-18 18:30 37.579887 -122.266032 285 1122ft 130kts
29-Sep-18 18:31 37.594387 -122.307275 292 1001ft 127kts
29-Sep-18 18:32 37.608920 -122.344858 290 325ft 116kts
29-Sep-18 18:33 37.617044 -122.365129 291 16ft 17kts
29-Sep-18 18:34 37.618426 -122.366439 28 16ft 0kts
29-Sep-18 18:35 37.618431 -122.366436 28 16ft 0kts
29-Sep-18 18:36 37.619601 -122.367876 298 16ft 13kts
29-Sep-18 18:37 37.620752 -122.370628 295 16ft 0kts
29-Sep-18 18:38 37.621810 -122.373188 297 16ft 17kts
29-Sep-18 18:39 37.624011 -122.378380 295 16ft 14kts
29-Sep-18 18:40 37.625787 -122.381371 25 16ft 8kts
29-Sep-18 18:41 37.626788 -122.381938 335 16ft 0kts

Navigation Log

Ident Type
Flight plan parsing failed, navigation log unavailable